PWSweather.com
Personal Weather Stations
Station Observations
IHTIMAN1
Neighbourhood 1, IhtimanBG 2050

Neighbourhood 1IhtimanBG 2050

Lat: 42.436852, Lon: 23.817921

Elevation: 2066

Station Type: Oregon Scientific WMR968

http://ihtiman-meteo.com

High Low Average
Temperature 91.3°F32.9°C 57.2°F14.0°C 73.4°F23.0°C
Dew Point 64.0°F17.8°C 53.7°F12.1°C 59.8°F15.4°C
Winds 8.1 mph 13.0 kmh Calm Calm 2.0 mph SW3.2 kmh SW
Wind Gusts 12.7 mph20.4 kmh -- 4.0 mph6.4 kmh
Humidity 98% 29% 68%
Pressure 30.12 in1020.0 mb 30.03 in1016.9 mb -
Precipitation 0.00 in0.0 mm - -
Hour Temp Dew Point Humidity Winds Wind Gusts Pressure Precip Precip Rate Daily Precip Total
12:00 AM 62.6°F17.0°C 60.5°F15.8°C 93% Calm Calm -- 30.06 in1017.9 mb - 0.00 in0.0 mm 0.00 in0.0 mm
12:10 AM 62.2°F16.8°C 60.5°F15.8°C 94% Calm Calm -- 30.06 in1017.9 mb - 0.00 in0.0 mm 0.00 in0.0 mm
12:20 AM 62.0°F16.7°C 60.3°F15.7°C 94% Calm Calm -- 30.06 in1017.9 mb - 0.00 in0.0 mm 0.00 in0.0 mm
12:30 AM 61.7°F16.5°C 60.3°F15.7°C 95% Calm Calm -- 30.06 in1017.9 mb - 0.00 in0.0 mm 0.00 in0.0 mm
12:40 AM 61.5°F16.4°C 60.1°F15.6°C 95% Calm Calm -- 30.06 in1017.9 mb - 0.00 in0.0 mm 0.00 in0.0 mm
12:50 AM 61.3°F16.3°C 59.9°F15.5°C 95% Calm Calm -- 30.06 in1017.9 mb - 0.00 in0.0 mm 0.00 in0.0 mm
01:00 AM 61.2°F16.2°C 60.0°F15.6°C 96% Calm Calm -- 30.06 in1017.9 mb - 0.00 in0.0 mm 0.00 in0.0 mm
01:10 AM 61.0°F16.1°C 59.8°F15.4°C 96% Calm Calm -- 30.06 in1017.9 mb - 0.00 in0.0 mm 0.00 in0.0 mm
01:20 AM 61.0°F16.1°C 59.8°F15.4°C 96% Calm Calm -- 30.06 in1017.9 mb - 0.00 in0.0 mm 0.00 in0.0 mm
01:30 AM 60.8°F16.0°C 59.9°F15.5°C 97% Calm Calm -- 30.03 in1016.9 mb - 0.00 in0.0 mm 0.00 in0.0 mm
01:40 AM 60.6°F15.9°C 59.8°F15.4°C 97% Calm Calm -- 30.03 in1016.9 mb - 0.00 in0.0 mm 0.00 in0.0 mm
01:50 AM 60.1°F15.6°C 59.2°F15.1°C 97% Calm Calm -- 30.06 in1017.9 mb - 0.00 in0.0 mm 0.00 in0.0 mm
02:00 AM 59.9°F15.5°C 59.0°F15.0°C 97% Calm Calm -- 30.06 in1017.9 mb - 0.00 in0.0 mm 0.00 in0.0 mm
02:10 AM 59.7°F15.4°C 58.8°F14.9°C 97% Calm Calm -- 30.06 in1017.9 mb - 0.00 in0.0 mm 0.00 in0.0 mm
02:20 AM 59.4°F15.2°C 58.5°F14.7°C 97% Calm Calm -- 30.06 in1017.9 mb - 0.00 in0.0 mm 0.00 in0.0 mm
02:30 AM 59.2°F15.1°C 58.3°F14.6°C 97% Calm Calm -- 30.06 in1017.9 mb - 0.00 in0.0 mm 0.00 in0.0 mm
02:40 AM 59.2°F15.1°C 58.3°F14.6°C 97% Calm Calm -- 30.06 in1017.9 mb - 0.00 in0.0 mm 0.00 in0.0 mm
02:50 AM 59.0°F15.0°C 58.4°F14.7°C 98% Calm Calm -- 30.06 in1017.9 mb - 0.00 in0.0 mm 0.00 in0.0 mm
03:00 AM 59.0°F15.0°C 58.4°F14.7°C 98% Calm Calm -- 30.06 in1017.9 mb - 0.00 in0.0 mm 0.00 in0.0 mm
03:10 AM 59.0°F15.0°C 58.4°F14.7°C 98% Calm Calm -- 30.06 in1017.9 mb - 0.00 in0.0 mm 0.00 in0.0 mm
03:20 AM 58.8°F14.9°C 58.3°F14.6°C 98% Calm Calm -- 30.06 in1017.9 mb - 0.00 in0.0 mm 0.00 in0.0 mm
03:30 AM 58.8°F14.9°C 58.3°F14.6°C 98% Calm Calm -- 30.06 in1017.9 mb - 0.00 in0.0 mm 0.00 in0.0 mm
03:40 AM 58.8°F14.9°C 58.3°F14.6°C 98% Calm Calm -- 30.06 in1017.9 mb - 0.00 in0.0 mm 0.00 in0.0 mm
03:50 AM 58.6°F14.8°C 58.1°F14.5°C 98% Calm Calm -- 30.06 in1017.9 mb - 0.00 in0.0 mm 0.00 in0.0 mm
04:00 AM 58.4°F14.7°C 57.9°F14.4°C 98% Calm Calm -- 30.06 in1017.9 mb - 0.00 in0.0 mm 0.00 in0.0 mm
04:10 AM 58.0°F14.4°C 57.4°F14.1°C 98% Calm Calm -- 30.06 in1017.9 mb - 0.00 in0.0 mm 0.00 in0.0 mm
04:20 AM 57.6°F14.2°C 57.0°F13.9°C 98% Calm Calm -- 30.06 in1017.9 mb - 0.00 in0.0 mm 0.00 in0.0 mm
04:30 AM 57.2°F14.0°C 56.6°F13.7°C 98% Calm Calm -- 30.06 in1017.9 mb - 0.00 in0.0 mm 0.00 in0.0 mm
04:40 AM 57.2°F14.0°C 56.6°F13.7°C 98% Calm Calm -- 30.06 in1017.9 mb - 0.00 in0.0 mm 0.00 in0.0 mm
04:50 AM 57.2°F14.0°C 56.6°F13.7°C 98% Calm Calm -- 30.06 in1017.9 mb - 0.00 in0.0 mm 0.00 in0.0 mm
05:00 AM 57.2°F14.0°C 56.6°F13.7°C 98% Calm Calm -- 30.06 in1017.9 mb - 0.00 in0.0 mm 0.00 in0.0 mm
05:10 AM 57.4°F14.1°C 56.8°F13.8°C 98% Calm Calm -- 30.06 in1017.9 mb - 0.00 in0.0 mm 0.00 in0.0 mm
05:20 AM 57.2°F14.0°C 56.6°F13.7°C 98% Calm Calm -- 30.06 in1017.9 mb - 0.00 in0.0 mm 0.00 in0.0 mm
05:30 AM 57.2°F14.0°C 56.6°F13.7°C 98% Calm Calm -- 30.06 in1017.9 mb - 0.00 in0.0 mm 0.00 in0.0 mm
05:40 AM 57.6°F14.2°C 57.0°F13.9°C 98% Calm Calm -- 30.06 in1017.9 mb - 0.00 in0.0 mm 0.00 in0.0 mm
05:50 AM 57.7°F14.3°C 57.2°F14.0°C 98% Calm Calm -- 30.06 in1017.9 mb - 0.00 in0.0 mm 0.00 in0.0 mm
06:00 AM 57.9°F14.4°C 57.4°F14.1°C 98% Calm Calm -- 30.06 in1017.9 mb - 0.00 in0.0 mm 0.00 in0.0 mm
06:10 AM 57.7°F14.3°C 57.2°F14.0°C 98% Calm Calm -- 30.06 in1017.9 mb - 0.00 in0.0 mm 0.00 in0.0 mm
06:20 AM 58.0°F14.4°C 57.5°F14.2°C 98% Calm Calm -- 30.06 in1017.9 mb - 0.00 in0.0 mm 0.00 in0.0 mm
06:30 AM 58.7°F14.8°C 58.1°F14.5°C 98% Calm Calm -- 30.06 in1017.9 mb - 0.00 in0.0 mm 0.00 in0.0 mm
06:50 AM 60.0°F15.6°C 59.4°F15.2°C 98% Calm Calm -- 30.06 in1017.9 mb - 0.00 in0.0 mm 0.00 in0.0 mm
07:00 AM 60.8°F16.0°C 60.3°F15.7°C 98% Calm Calm -- 30.06 in1017.9 mb - 0.00 in0.0 mm 0.00 in0.0 mm
07:10 AM 62.4°F16.9°C 61.8°F16.6°C 98% Calm Calm -- 30.06 in1017.9 mb - 0.00 in0.0 mm 0.00 in0.0 mm
07:20 AM 65.0°F18.3°C 63.5°F17.5°C 95% Calm Calm -- 30.06 in1017.9 mb - 0.00 in0.0 mm 0.00 in0.0 mm
07:30 AM 66.5°F19.2°C 63.2°F17.3°C 89% Calm Calm -- 30.06 in1017.9 mb - 0.00 in0.0 mm 0.00 in0.0 mm
07:40 AM 66.7°F19.3°C 61.7°F16.5°C 84% 2.3 mph WSW3.7 kmh WSW 3.5 mph5.6 kmh 30.06 in1017.9 mb - 0.00 in0.0 mm 0.00 in0.0 mm
07:50 AM 67.5°F19.7°C 61.4°F16.3°C 81% Calm Calm -- 30.06 in1017.9 mb - 0.00 in0.0 mm 0.00 in0.0 mm
08:00 AM 69.1°F20.6°C 61.2°F16.2°C 76% 2.3 mph SE3.7 kmh SE 3.5 mph5.6 kmh 30.06 in1017.9 mb - 0.00 in0.0 mm 0.00 in0.0 mm
08:10 AM 69.6°F20.9°C 60.2°F15.7°C 72% 1.2 mph SW1.9 kmh SW 3.5 mph5.6 kmh 30.06 in1017.9 mb - 0.00 in0.0 mm 0.00 in0.0 mm
08:20 AM 70.8°F21.6°C 60.9°F16.1°C 71% Calm Calm -- 30.06 in1017.9 mb - 0.00 in0.0 mm 0.00 in0.0 mm
08:30 AM 71.8°F22.1°C 60.7°F15.9°C 68% Calm Calm 2.3 mph3.7 kmh 30.06 in1017.9 mb - 0.00 in0.0 mm 0.00 in0.0 mm
08:40 AM 73.2°F22.9°C 61.6°F16.4°C 67% 1.2 mph S1.9 kmh S 3.5 mph5.6 kmh 30.06 in1017.9 mb - 0.00 in0.0 mm 0.00 in0.0 mm
08:50 AM 74.1°F23.4°C 62.0°F16.7°C 66% Calm Calm -- 30.06 in1017.9 mb - 0.00 in0.0 mm 0.00 in0.0 mm
09:00 AM 74.5°F23.6°C 61.5°F16.4°C 64% 3.5 mph S5.6 kmh S 4.6 mph7.4 kmh 30.06 in1017.9 mb - 0.00 in0.0 mm 0.00 in0.0 mm
09:10 AM 75.6°F24.2°C 62.5°F16.9°C 64% 2.3 mph SW3.7 kmh SW 3.5 mph5.6 kmh 30.06 in1017.9 mb - 0.00 in0.0 mm 0.00 in0.0 mm
09:20 AM 77.5°F25.3°C 63.0°F17.2°C 61% Calm Calm 2.3 mph3.7 kmh 30.06 in1017.9 mb - 0.00 in0.0 mm 0.00 in0.0 mm
09:30 AM 78.0°F25.6°C 62.5°F16.9°C 59% Calm Calm 3.5 mph5.6 kmh 30.06 in1017.9 mb - 0.00 in0.0 mm 0.00 in0.0 mm
09:40 AM 78.2°F25.7°C 62.2°F16.8°C 58% 3.5 mph WNW5.6 kmh WNW 4.6 mph7.4 kmh 30.06 in1017.9 mb - 0.00 in0.0 mm 0.00 in0.0 mm
09:50 AM 78.1°F25.6°C 61.6°F16.4°C 57% 3.5 mph W5.6 kmh W 3.5 mph5.6 kmh 30.06 in1017.9 mb - 0.00 in0.0 mm 0.00 in0.0 mm
10:00 AM 79.2°F26.2°C 61.1°F16.2°C 54% 3.5 mph WNW5.6 kmh WNW 4.6 mph7.4 kmh 30.09 in1019.0 mb - 0.00 in0.0 mm 0.00 in0.0 mm
10:10 AM 80.6°F27.0°C 62.9°F17.2°C 55% 2.3 mph SW3.7 kmh SW 3.5 mph5.6 kmh 30.09 in1019.0 mb - 0.00 in0.0 mm 0.00 in0.0 mm
10:20 AM 81.7°F27.6°C 63.5°F17.5°C 54% 1.2 mph SW1.9 kmh SW 3.5 mph5.6 kmh 30.09 in1019.0 mb - 0.00 in0.0 mm 0.00 in0.0 mm
10:30 AM 82.9°F28.3°C 64.0°F17.8°C 53% 1.2 mph W1.9 kmh W 4.6 mph7.4 kmh 30.09 in1019.0 mb - 0.00 in0.0 mm 0.00 in0.0 mm
10:40 AM 82.6°F28.1°C 62.6°F17.0°C 51% 3.5 mph WSW5.6 kmh WSW 5.8 mph9.3 kmh 30.09 in1019.0 mb - 0.00 in0.0 mm 0.00 in0.0 mm
10:50 AM 83.4°F28.6°C 62.2°F16.8°C 49% 3.5 mph NNW5.6 kmh NNW 6.9 mph11.1 kmh 30.06 in1017.9 mb - 0.00 in0.0 mm 0.00 in0.0 mm
11:00 AM 83.9°F28.8°C 61.5°F16.4°C 47% 4.6 mph NW7.4 kmh NW 5.8 mph9.3 kmh 30.09 in1019.0 mb - 0.00 in0.0 mm 0.00 in0.0 mm
11:10 AM 84.4°F29.1°C 61.9°F16.6°C 47% Calm Calm 3.5 mph5.6 kmh 30.09 in1019.0 mb - 0.00 in0.0 mm 0.00 in0.0 mm
11:20 AM 84.0°F28.9°C 61.6°F16.4°C 47% 1.2 mph NW1.9 kmh NW 3.5 mph5.6 kmh 30.09 in1019.0 mb - 0.00 in0.0 mm 0.00 in0.0 mm
11:30 AM 84.2°F29.0°C 60.6°F15.9°C 45% 1.2 mph NW1.9 kmh NW 2.3 mph3.7 kmh 30.09 in1019.0 mb - 0.00 in0.0 mm 0.00 in0.0 mm
11:40 AM 85.9°F29.9°C 60.1°F15.6°C 42% 4.6 mph 7.4 kmh 5.8 mph9.3 kmh 30.09 in1019.0 mb - 0.00 in0.0 mm 0.00 in0.0 mm
11:50 AM 85.9°F29.9°C 60.1°F15.6°C 42% 4.6 mph NNW7.4 kmh NNW 5.8 mph9.3 kmh 30.09 in1019.0 mb - 0.00 in0.0 mm 0.00 in0.0 mm
12:00 PM 85.1°F29.5°C 58.8°F14.9°C 41% 3.5 mph S5.6 kmh S 3.5 mph5.6 kmh 30.09 in1019.0 mb - 0.00 in0.0 mm 0.00 in0.0 mm
12:10 PM 85.8°F29.9°C 58.0°F14.4°C 39% 1.2 mph NW1.9 kmh NW 3.5 mph5.6 kmh 30.09 in1019.0 mb - 0.00 in0.0 mm 0.00 in0.0 mm
12:20 PM 86.2°F30.1°C 58.3°F14.6°C 39% Calm Calm 5.8 mph9.3 kmh 30.09 in1019.0 mb - 0.00 in0.0 mm 0.00 in0.0 mm
12:30 PM 86.7°F30.4°C 59.5°F15.3°C 40% 5.8 mph NW9.3 kmh NW 9.2 mph14.8 kmh 30.09 in1019.0 mb - 0.00 in0.0 mm 0.00 in0.0 mm
12:40 PM 87.3°F30.7°C 61.4°F16.3°C 42% 6.9 mph NW11.1 kmh NW 11.5 mph18.5 kmh 30.09 in1019.0 mb - 0.00 in0.0 mm 0.00 in0.0 mm
12:50 PM 88.2°F31.2°C 60.9°F16.1°C 40% 5.8 mph NNE9.3 kmh NNE 10.4 mph16.7 kmh 30.09 in1019.0 mb - 0.00 in0.0 mm 0.00 in0.0 mm
01:00 PM 89.2°F31.8°C 60.2°F15.7°C 38% 4.6 mph N7.4 kmh N 8.1 mph13.0 kmh 30.09 in1019.0 mb - 0.00 in0.0 mm 0.00 in0.0 mm
01:10 PM 89.1°F31.7°C 58.6°F14.8°C 36% 4.6 mph N7.4 kmh N 6.9 mph11.1 kmh 30.09 in1019.0 mb - 0.00 in0.0 mm 0.00 in0.0 mm
01:20 PM 89.5°F31.9°C 58.2°F14.6°C 35% 5.8 mph NNE9.3 kmh NNE 8.1 mph13.0 kmh 30.09 in1019.0 mb - 0.00 in0.0 mm 0.00 in0.0 mm
01:30 PM 89.2°F31.8°C 58.0°F14.4°C 35% 4.6 mph N7.4 kmh N 5.8 mph9.3 kmh 30.09 in1019.0 mb - 0.00 in0.0 mm 0.00 in0.0 mm
01:40 PM 90.1°F32.3°C 58.7°F14.8°C 35% 5.8 mph N9.3 kmh N 8.1 mph13.0 kmh 30.09 in1019.0 mb - 0.00 in0.0 mm 0.00 in0.0 mm
01:50 PM 88.9°F31.6°C 56.9°F13.8°C 34% 6.9 mph WNW11.1 kmh WNW 6.9 mph11.1 kmh 30.09 in1019.0 mb - 0.00 in0.0 mm 0.00 in0.0 mm
02:00 PM 90.7°F32.6°C 55.9°F13.3°C 31% 4.6 mph N7.4 kmh N 8.1 mph13.0 kmh 30.06 in1017.9 mb - 0.00 in0.0 mm 0.00 in0.0 mm
02:10 PM 90.3°F32.4°C 53.7°F12.1°C 29% 8.1 mph N13.0 kmh N 12.7 mph20.4 kmh 30.06 in1017.9 mb - 0.00 in0.0 mm 0.00 in0.0 mm
02:20 PM 90.5°F32.5°C 54.8°F12.7°C 30% 6.9 mph NNW11.1 kmh NNW 10.4 mph16.7 kmh 30.06 in1017.9 mb - 0.00 in0.0 mm 0.00 in0.0 mm
02:30 PM 91.3°F32.9°C 56.4°F13.6°C 31% 3.5 mph N5.6 kmh N 5.8 mph9.3 kmh 30.06 in1017.9 mb - 0.00 in0.0 mm 0.00 in0.0 mm
02:40 PM 91.0°F32.8°C 56.2°F13.4°C 31% 6.9 mph N11.1 kmh N 11.5 mph18.5 kmh 30.06 in1017.9 mb - 0.00 in0.0 mm 0.00 in0.0 mm
02:50 PM 90.6°F32.6°C 56.7°F13.7°C 32% 4.6 mph N7.4 kmh N 5.8 mph9.3 kmh 30.06 in1017.9 mb - 0.00 in0.0 mm 0.00 in0.0 mm
03:00 PM 89.6°F32.0°C 56.7°F13.7°C 33% 4.6 mph N7.4 kmh N 5.8 mph9.3 kmh 30.06 in1017.9 mb - 0.00 in0.0 mm 0.00 in0.0 mm
03:10 PM 89.0°F31.7°C 56.2°F13.4°C 33% 3.5 mph N5.6 kmh N 8.1 mph13.0 kmh 30.06 in1017.9 mb - 0.00 in0.0 mm 0.00 in0.0 mm
03:20 PM 89.8°F32.1°C 60.1°F15.6°C 37% 6.9 mph NNW11.1 kmh NNW 9.2 mph14.8 kmh 30.06 in1017.9 mb - 0.00 in0.0 mm 0.00 in0.0 mm
03:30 PM 89.4°F31.9°C 58.9°F14.9°C 36% 6.9 mph N11.1 kmh N 9.2 mph14.8 kmh 30.06 in1017.9 mb - 0.00 in0.0 mm 0.00 in0.0 mm
03:40 PM 88.2°F31.2°C 59.4°F15.2°C 38% 8.1 mph N13.0 kmh N 12.7 mph20.4 kmh 30.06 in1017.9 mb - 0.00 in0.0 mm 0.00 in0.0 mm
03:50 PM 87.9°F31.1°C 59.1°F15.1°C 38% 4.6 mph N7.4 kmh N 5.8 mph9.3 kmh 30.06 in1017.9 mb - 0.00 in0.0 mm 0.00 in0.0 mm
04:00 PM 87.6°F30.9°C 58.8°F14.9°C 38% 4.6 mph NNE7.4 kmh NNE 8.1 mph13.0 kmh 30.06 in1017.9 mb - 0.00 in0.0 mm 0.00 in0.0 mm
04:10 PM 88.5°F31.4°C 59.7°F15.4°C 38% 6.9 mph N11.1 kmh N 9.2 mph14.8 kmh 30.06 in1017.9 mb - 0.00 in0.0 mm 0.00 in0.0 mm
04:20 PM 88.4°F31.3°C 58.0°F14.4°C 36% 4.6 mph NNE7.4 kmh NNE 9.2 mph14.8 kmh 30.06 in1017.9 mb - 0.00 in0.0 mm 0.00 in0.0 mm
04:30 PM 88.8°F31.6°C 59.1°F15.1°C 37% 4.6 mph N7.4 kmh N 5.8 mph9.3 kmh 30.06 in1017.9 mb - 0.00 in0.0 mm 0.00 in0.0 mm
04:40 PM 87.7°F30.9°C 57.5°F14.2°C 36% 5.8 mph NNE9.3 kmh NNE 5.8 mph9.3 kmh 30.06 in1017.9 mb - 0.00 in0.0 mm 0.00 in0.0 mm
04:50 PM 87.5°F30.8°C 57.3°F14.1°C 36% 5.8 mph N9.3 kmh N 10.4 mph16.7 kmh 30.06 in1017.9 mb - 0.00 in0.0 mm 0.00 in0.0 mm
05:00 PM 86.9°F30.5°C 57.5°F14.2°C 37% 4.6 mph NNE7.4 kmh NNE 9.2 mph14.8 kmh 30.06 in1017.9 mb - 0.00 in0.0 mm 0.00 in0.0 mm
05:10 PM 86.2°F30.1°C 56.9°F13.8°C 37% 5.8 mph N9.3 kmh N 8.1 mph13.0 kmh 30.06 in1017.9 mb - 0.00 in0.0 mm 0.00 in0.0 mm
05:20 PM 85.8°F29.9°C 57.3°F14.1°C 38% 5.8 mph N9.3 kmh N 10.4 mph16.7 kmh 30.06 in1017.9 mb - 0.00 in0.0 mm 0.00 in0.0 mm
05:30 PM 84.9°F29.4°C 56.5°F13.6°C 38% 5.8 mph N9.3 kmh N 5.8 mph9.3 kmh 30.06 in1017.9 mb - 0.00 in0.0 mm 0.00 in0.0 mm
05:40 PM 83.8°F28.8°C 56.9°F13.8°C 40% 3.5 mph N5.6 kmh N 5.8 mph9.3 kmh 30.06 in1017.9 mb - 0.00 in0.0 mm 0.00 in0.0 mm
05:50 PM 83.6°F28.7°C 57.4°F14.1°C 41% 3.5 mph NNE5.6 kmh NNE 3.5 mph5.6 kmh 30.06 in1017.9 mb - 0.00 in0.0 mm 0.00 in0.0 mm
06:00 PM 83.1°F28.4°C 57.0°F13.9°C 41% 4.6 mph N7.4 kmh N 8.1 mph13.0 kmh 30.06 in1017.9 mb - 0.00 in0.0 mm 0.00 in0.0 mm
06:10 PM 82.7°F28.2°C 57.3°F14.1°C 42% 5.8 mph N9.3 kmh N 6.9 mph11.1 kmh 30.06 in1017.9 mb - 0.00 in0.0 mm 0.00 in0.0 mm
06:20 PM 82.3°F27.9°C 57.6°F14.2°C 43% 3.5 mph N5.6 kmh N 3.5 mph5.6 kmh 30.06 in1017.9 mb - 0.00 in0.0 mm 0.00 in0.0 mm
06:30 PM 81.5°F27.5°C 58.1°F14.5°C 45% 4.6 mph NNE7.4 kmh NNE 5.8 mph9.3 kmh 30.06 in1017.9 mb - 0.00 in0.0 mm 0.00 in0.0 mm
06:40 PM 80.7°F27.1°C 58.0°F14.4°C 46% 4.6 mph N7.4 kmh N 4.6 mph7.4 kmh 30.06 in1017.9 mb - 0.00 in0.0 mm 0.00 in0.0 mm
06:50 PM 79.9°F26.6°C 58.5°F14.7°C 48% 3.5 mph N5.6 kmh N 3.5 mph5.6 kmh 30.06 in1017.9 mb - 0.00 in0.0 mm 0.00 in0.0 mm
07:00 PM 79.7°F26.5°C 58.8°F14.9°C 49% 4.6 mph N7.4 kmh N 5.8 mph9.3 kmh 30.06 in1017.9 mb - 0.00 in0.0 mm 0.00 in0.0 mm
07:10 PM 79.1°F26.2°C 59.5°F15.3°C 51% 4.6 mph N7.4 kmh N 9.2 mph14.8 kmh 30.06 in1017.9 mb - 0.00 in0.0 mm 0.00 in0.0 mm
07:20 PM 78.5°F25.8°C 59.9°F15.5°C 53% 4.6 mph NNE7.4 kmh NNE 8.1 mph13.0 kmh 30.06 in1017.9 mb - 0.00 in0.0 mm 0.00 in0.0 mm
07:30 PM 77.8°F25.4°C 60.4°F15.8°C 55% 4.6 mph N7.4 kmh N 5.8 mph9.3 kmh 30.06 in1017.9 mb - 0.00 in0.0 mm 0.00 in0.0 mm
07:40 PM 77.0°F25.0°C 61.6°F16.4°C 59% 5.8 mph N9.3 kmh N 8.1 mph13.0 kmh 30.06 in1017.9 mb - 0.00 in0.0 mm 0.00 in0.0 mm
07:50 PM 76.1°F24.5°C 62.6°F17.0°C 63% 2.3 mph N3.7 kmh N 3.5 mph5.6 kmh 30.06 in1017.9 mb - 0.00 in0.0 mm 0.00 in0.0 mm
08:00 PM 75.4°F24.1°C 62.4°F16.9°C 64% 3.5 mph N5.6 kmh N 5.8 mph9.3 kmh 30.06 in1017.9 mb - 0.00 in0.0 mm 0.00 in0.0 mm
08:10 PM 74.1°F23.4°C 62.0°F16.7°C 66% 3.5 mph N5.6 kmh N 4.6 mph7.4 kmh 30.06 in1017.9 mb - 0.00 in0.0 mm 0.00 in0.0 mm
08:20 PM 73.4°F23.0°C 62.2°F16.8°C 68% 4.6 mph S7.4 kmh S 5.8 mph9.3 kmh 30.09 in1019.0 mb - 0.00 in0.0 mm 0.00 in0.0 mm
08:30 PM 72.0°F22.2°C 62.1°F16.7°C 71% 3.5 mph SW5.6 kmh SW 3.5 mph5.6 kmh 30.09 in1019.0 mb - 0.00 in0.0 mm 0.00 in0.0 mm
08:40 PM 70.9°F21.6°C 62.9°F17.2°C 76% 3.5 mph SW5.6 kmh SW 4.6 mph7.4 kmh 30.09 in1019.0 mb - 0.00 in0.0 mm 0.00 in0.0 mm
08:50 PM 70.7°F21.5°C 63.5°F17.5°C 78% 2.3 mph NW3.7 kmh NW 3.5 mph5.6 kmh 30.09 in1019.0 mb - 0.00 in0.0 mm 0.00 in0.0 mm
09:00 PM 70.7°F21.5°C 63.5°F17.5°C 78% Calm Calm 3.5 mph5.6 kmh 30.09 in1019.0 mb - 0.00 in0.0 mm 0.00 in0.0 mm
09:10 PM 70.5°F21.4°C 63.7°F17.6°C 79% Calm Calm 3.5 mph5.6 kmh 30.09 in1019.0 mb - 0.00 in0.0 mm 0.00 in0.0 mm
09:20 PM 70.0°F21.1°C 63.2°F17.3°C 79% Calm Calm -- 30.12 in1020.0 mb - 0.00 in0.0 mm 0.00 in0.0 mm
09:30 PM 69.8°F21.0°C 63.3°F17.4°C 80% Calm Calm -- 30.12 in1020.0 mb - 0.00 in0.0 mm 0.00 in0.0 mm
09:40 PM 69.5°F20.8°C 63.4°F17.4°C 81% 4.6 mph WSW7.4 kmh WSW 5.8 mph9.3 kmh 30.12 in1020.0 mb - 0.00 in0.0 mm 0.00 in0.0 mm
09:50 PM 69.8°F21.0°C 63.7°F17.6°C 81% Calm Calm -- 30.12 in1020.0 mb - 0.00 in0.0 mm 0.00 in0.0 mm
10:00 PM 69.6°F20.9°C 63.5°F17.5°C 81% Calm Calm -- 30.12 in1020.0 mb - 0.00 in0.0 mm 0.00 in0.0 mm
10:10 PM 69.1°F20.6°C 63.0°F17.2°C 81% Calm Calm -- 30.12 in1020.0 mb - 0.00 in0.0 mm 0.00 in0.0 mm
10:20 PM 68.6°F20.3°C 62.5°F16.9°C 81% Calm Calm -- 30.12 in1020.0 mb - 0.00 in0.0 mm 0.00 in0.0 mm
10:30 PM 68.1°F20.1°C 62.4°F16.9°C 82% 2.3 mph N3.7 kmh N 3.5 mph5.6 kmh 30.12 in1020.0 mb - 0.00 in0.0 mm 0.00 in0.0 mm
10:40 PM 67.7°F19.8°C 62.3°F16.8°C 83% Calm Calm -- 30.12 in1020.0 mb - 0.00 in0.0 mm 0.00 in0.0 mm
10:50 PM 67.5°F19.7°C 62.8°F17.1°C 85% Calm Calm 3.5 mph5.6 kmh 30.12 in1020.0 mb - 0.00 in0.0 mm 0.00 in0.0 mm
11:00 PM 67.1°F19.5°C 62.8°F17.1°C 86% Calm Calm -- 30.12 in1020.0 mb - 0.00 in0.0 mm 0.00 in0.0 mm
11:10 PM 66.7°F19.3°C 62.4°F16.9°C 86% Calm Calm -- 30.12 in1020.0 mb - 0.00 in0.0 mm 0.00 in0.0 mm
11:20 PM 66.3°F19.1°C 62.3°F16.8°C 87% 3.5 mph SE5.6 kmh SE 3.5 mph5.6 kmh 30.12 in1020.0 mb - 0.00 in0.0 mm 0.00 in0.0 mm
11:30 PM 65.8°F18.8°C 62.5°F16.9°C 89% 1.2 mph SE1.9 kmh SE 2.3 mph3.7 kmh 30.09 in1019.0 mb - 0.00 in0.0 mm 0.00 in0.0 mm
11:40 PM 65.6°F18.7°C 62.6°F17.0°C 90% Calm Calm -- 30.09 in1019.0 mb - 0.00 in0.0 mm 0.00 in0.0 mm
11:50 PM 65.5°F18.6°C 62.8°F17.1°C 91% 1.2 mph SE1.9 kmh SE 2.3 mph3.7 kmh 30.09 in1019.0 mb - 0.00 in0.0 mm 0.00 in0.0 mm